sensor_id;sensor_type;location;lat;lon;timestamp;P1;durP1;ratioP1;P2;durP2;ratioP2
36629;SDS011;36256;42.154;23.002;2023-04-16T00:01:01;14.15;;;7.80;;
36629;SDS011;36256;42.154;23.002;2023-04-16T00:03:28;12.07;;;7.32;;
36629;SDS011;36256;42.154;23.002;2023-04-16T00:05:55;8.93;;;5.32;;
36629;SDS011;36256;42.154;23.002;2023-04-16T00:08:22;10.07;;;5.78;;
36629;SDS011;36256;42.154;23.002;2023-04-16T00:10:51;8.45;;;4.50;;
36629;SDS011;36256;42.154;23.002;2023-04-16T00:13:20;6.60;;;4.03;;
36629;SDS011;36256;42.154;23.002;2023-04-16T00:15:47;7.88;;;3.55;;
36629;SDS011;36256;42.154;23.002;2023-04-16T00:18:14;6.45;;;3.13;;
36629;SDS011;36256;42.154;23.002;2023-04-16T00:20:41;5.33;;;3.53;;
36629;SDS011;36256;42.154;23.002;2023-04-16T00:23:07;6.50;;;2.77;;
36629;SDS011;36256;42.154;23.002;2023-04-16T00:25:34;4.70;;;2.20;;
36629;SDS011;36256;42.154;23.002;2023-04-16T00:28:01;4.93;;;2.40;;
36629;SDS011;36256;42.154;23.002;2023-04-16T00:30:28;3.35;;;2.10;;
36629;SDS011;36256;42.154;23.002;2023-04-16T00:32:54;4.50;;;2.17;;
36629;SDS011;36256;42.154;23.002;2023-04-16T00:35:21;4.53;;;2.00;;
36629;SDS011;36256;42.154;23.002;2023-04-16T00:37:48;5.82;;;2.65;;
36629;SDS011;36256;42.154;23.002;2023-04-16T00:40:14;3.50;;;2.30;;
36629;SDS011;36256;42.154;23.002;2023-04-16T00:42:41;5.65;;;2.50;;
36629;SDS011;36256;42.154;23.002;2023-04-16T00:45:08;4.60;;;2.42;;
36629;SDS011;36256;42.154;23.002;2023-04-16T00:47:35;4.22;;;2.38;;
36629;SDS011;36256;42.154;23.002;2023-04-16T00:50:02;4.43;;;2.17;;
36629;SDS011;36256;42.154;23.002;2023-04-16T00:54:58;4.82;;;2.20;;
36629;SDS011;36256;42.154;23.002;2023-04-16T00:57:24;4.00;;;2.10;;
36629;SDS011;36256;42.154;23.002;2023-04-16T01:04:45;3.75;;;1.88;;
36629;SDS011;36256;42.154;23.002;2023-04-16T01:07:12;3.70;;;2.03;;
36629;SDS011;36256;42.154;23.002;2023-04-16T01:09:38;5.00;;;2.00;;
36629;SDS011;36256;42.154;23.002;2023-04-16T01:12:05;3.87;;;2.00;;
36629;SDS011;36256;42.154;23.002;2023-04-16T01:14:32;4.18;;;1.65;;
36629;SDS011;36256;42.154;23.002;2023-04-16T01:17:02;6.55;;;2.60;;
36629;SDS011;36256;42.154;23.002;2023-04-16T01:19:29;8.00;;;3.88;;
36629;SDS011;36256;42.154;23.002;2023-04-16T01:22:02;10.77;;;5.05;;
36629;SDS011;36256;42.154;23.002;2023-04-16T01:26:59;12.27;;;4.70;;
36629;SDS011;36256;42.154;23.002;2023-04-16T01:29:26;11.40;;;4.55;;
36629;SDS011;36256;42.154;23.002;2023-04-16T01:31:52;15.38;;;5.97;;
36629;SDS011;36256;42.154;23.002;2023-04-16T01:34:19;13.27;;;5.95;;
36629;SDS011;36256;42.154;23.002;2023-04-16T01:36:46;13.93;;;6.25;;
36629;SDS011;36256;42.154;23.002;2023-04-16T01:39:12;12.80;;;6.30;;
36629;SDS011;36256;42.154;23.002;2023-04-16T01:41:41;11.88;;;5.88;;
36629;SDS011;36256;42.154;23.002;2023-04-16T01:44:08;12.38;;;5.72;;
36629;SDS011;36256;42.154;23.002;2023-04-16T01:46:35;13.65;;;7.03;;
36629;SDS011;36256;42.154;23.002;2023-04-16T01:49:03;12.05;;;5.47;;
36629;SDS011;36256;42.154;23.002;2023-04-16T01:51:30;14.30;;;6.97;;
36629;SDS011;36256;42.154;23.002;2023-04-16T01:53:57;9.85;;;3.30;;
36629;SDS011;36256;42.154;23.002;2023-04-16T01:56:24;5.47;;;1.77;;
36629;SDS011;36256;42.154;23.002;2023-04-16T01:58:51;5.93;;;2.60;;
36629;SDS011;36256;42.154;23.002;2023-04-16T02:01:18;6.18;;;2.97;;
36629;SDS011;36256;42.154;23.002;2023-04-16T02:03:44;6.55;;;2.47;;
36629;SDS011;36256;42.154;23.002;2023-04-16T02:06:12;5.65;;;2.28;;
36629;SDS011;36256;42.154;23.002;2023-04-16T02:11:06;4.63;;;2.38;;
36629;SDS011;36256;42.154;23.002;2023-04-16T02:13:33;4.07;;;2.15;;
36629;SDS011;36256;42.154;23.002;2023-04-16T02:16:00;5.50;;;2.20;;
36629;SDS011;36256;42.154;23.002;2023-04-16T02:18:27;3.40;;;2.08;;
36629;SDS011;36256;42.154;23.002;2023-04-16T02:20:56;6.10;;;2.03;;
36629;SDS011;36256;42.154;23.002;2023-04-16T02:23:24;6.95;;;2.40;;
36629;SDS011;36256;42.154;23.002;2023-04-16T02:25:51;6.93;;;3.03;;
36629;SDS011;36256;42.154;23.002;2023-04-16T02:28:17;8.10;;;4.10;;
36629;SDS011;36256;42.154;23.002;2023-04-16T02:30:44;8.50;;;4.50;;
36629;SDS011;36256;42.154;23.002;2023-04-16T02:33:11;6.20;;;3.73;;
36629;SDS011;36256;42.154;23.002;2023-04-16T02:35:38;10.80;;;5.00;;
36629;SDS011;36256;42.154;23.002;2023-04-16T02:38:05;10.85;;;5.30;;
36629;SDS011;36256;42.154;23.002;2023-04-16T02:40:33;12.73;;;5.60;;
36629;SDS011;36256;42.154;23.002;2023-04-16T02:42:59;11.00;;;5.55;;
36629;SDS011;36256;42.154;23.002;2023-04-16T02:45:26;10.00;;;4.23;;
36629;SDS011;36256;42.154;23.002;2023-04-16T02:47:53;10.18;;;4.40;;
36629;SDS011;36256;42.154;23.002;2023-04-16T02:50:19;11.25;;;6.15;;
36629;SDS011;36256;42.154;23.002;2023-04-16T02:52:46;9.57;;;4.43;;
36629;SDS011;36256;42.154;23.002;2023-04-16T02:55:13;7.28;;;2.60;;
36629;SDS011;36256;42.154;23.002;2023-04-16T02:57:40;5.60;;;2.00;;
36629;SDS011;36256;42.154;23.002;2023-04-16T03:00:08;4.35;;;2.10;;
36629;SDS011;36256;42.154;23.002;2023-04-16T03:02:35;8.00;;;3.30;;
36629;SDS011;36256;42.154;23.002;2023-04-16T03:05:02;7.05;;;3.88;;
36629;SDS011;36256;42.154;23.002;2023-04-16T03:07:29;8.52;;;4.55;;
36629;SDS011;36256;42.154;23.002;2023-04-16T03:09:55;8.48;;;4.53;;
36629;SDS011;36256;42.154;23.002;2023-04-16T03:12:22;9.13;;;4.82;;
36629;SDS011;36256;42.154;23.002;2023-04-16T03:14:49;8.82;;;4.65;;
36629;SDS011;36256;42.154;23.002;2023-04-16T03:17:17;10.05;;;4.60;;
36629;SDS011;36256;42.154;23.002;2023-04-16T03:19:44;8.73;;;5.07;;
36629;SDS011;36256;42.154;23.002;2023-04-16T03:22:11;11.15;;;4.78;;
36629;SDS011;36256;42.154;23.002;2023-04-16T03:24:38;10.38;;;5.32;;
36629;SDS011;36256;42.154;23.002;2023-04-16T03:27:05;11.93;;;4.70;;
36629;SDS011;36256;42.154;23.002;2023-04-16T03:29:31;11.53;;;5.90;;
36629;SDS011;36256;42.154;23.002;2023-04-16T03:31:58;27.43;;;15.53;;
36629;SDS011;36256;42.154;23.002;2023-04-16T03:34:24;32.67;;;17.60;;
36629;SDS011;36256;42.154;23.002;2023-04-16T03:36:51;21.50;;;12.30;;
36629;SDS011;36256;42.154;23.002;2023-04-16T03:39:18;14.15;;;7.72;;
36629;SDS011;36256;42.154;23.002;2023-04-16T03:41:44;9.25;;;4.65;;
36629;SDS011;36256;42.154;23.002;2023-04-16T03:44:11;9.55;;;4.15;;
36629;SDS011;36256;42.154;23.002;2023-04-16T03:46:37;9.60;;;3.53;;
36629;SDS011;36256;42.154;23.002;2023-04-16T03:49:04;7.55;;;3.67;;
36629;SDS011;36256;42.154;23.002;2023-04-16T03:51:31;11.35;;;4.18;;
36629;SDS011;36256;42.154;23.002;2023-04-16T03:53:58;5.43;;;3.22;;
36629;SDS011;36256;42.154;23.002;2023-04-16T03:56:24;8.30;;;5.32;;
36629;SDS011;36256;42.154;23.002;2023-04-16T03:58:51;12.40;;;6.10;;
36629;SDS011;36256;42.154;23.002;2023-04-16T04:01:18;13.10;;;5.95;;
36629;SDS011;36256;42.154;23.002;2023-04-16T04:03:44;8.07;;;4.60;;
36629;SDS011;36256;42.154;23.002;2023-04-16T04:06:11;9.70;;;5.13;;
36629;SDS011;36256;42.154;23.002;2023-04-16T04:08:38;13.45;;;5.38;;
36629;SDS011;36256;42.154;23.002;2023-04-16T04:11:04;6.43;;;3.47;;
36629;SDS011;36256;42.154;23.002;2023-04-16T04:13:31;6.90;;;3.88;;
36629;SDS011;36256;42.154;23.002;2023-04-16T04:15:57;10.87;;;4.60;;
36629;SDS011;36256;42.154;23.002;2023-04-16T04:18:24;11.73;;;5.88;;
36629;SDS011;36256;42.154;23.002;2023-04-16T04:20:51;12.27;;;7.13;;
36629;SDS011;36256;42.154;23.002;2023-04-16T04:23:17;14.65;;;6.45;;
36629;SDS011;36256;42.154;23.002;2023-04-16T04:25:44;10.57;;;5.97;;
36629;SDS011;36256;42.154;23.002;2023-04-16T04:28:11;13.68;;;6.45;;
36629;SDS011;36256;42.154;23.002;2023-04-16T04:30:37;13.07;;;5.60;;
36629;SDS011;36256;42.154;23.002;2023-04-16T04:33:04;12.25;;;6.00;;
36629;SDS011;36256;42.154;23.002;2023-04-16T04:35:31;13.90;;;7.60;;
36629;SDS011;36256;42.154;23.002;2023-04-16T04:37:58;17.90;;;8.20;;
36629;SDS011;36256;42.154;23.002;2023-04-16T04:40:25;26.38;;;14.75;;
36629;SDS011;36256;42.154;23.002;2023-04-16T04:42:51;17.30;;;7.65;;
36629;SDS011;36256;42.154;23.002;2023-04-16T04:45:18;13.43;;;6.70;;
36629;SDS011;36256;42.154;23.002;2023-04-16T04:47:45;17.47;;;6.33;;
36629;SDS011;36256;42.154;23.002;2023-04-16T04:50:11;24.97;;;6.27;;
36629;SDS011;36256;42.154;23.002;2023-04-16T04:52:38;16.38;;;7.45;;
36629;SDS011;36256;42.154;23.002;2023-04-16T04:55:04;21.10;;;7.30;;
36629;SDS011;36256;42.154;23.002;2023-04-16T04:57:31;18.58;;;8.35;;
36629;SDS011;36256;42.154;23.002;2023-04-16T04:59:58;16.50;;;5.47;;
36629;SDS011;36256;42.154;23.002;2023-04-16T05:02:24;23.02;;;10.25;;
36629;SDS011;36256;42.154;23.002;2023-04-16T05:04:51;18.88;;;9.60;;
36629;SDS011;36256;42.154;23.002;2023-04-16T05:07:18;21.42;;;10.40;;
36629;SDS011;36256;42.154;23.002;2023-04-16T05:09:44;28.40;;;10.10;;
36629;SDS011;36256;42.154;23.002;2023-04-16T05:12:11;20.52;;;10.23;;
36629;SDS011;36256;42.154;23.002;2023-04-16T05:14:37;23.83;;;9.83;;
36629;SDS011;36256;42.154;23.002;2023-04-16T05:17:04;20.95;;;11.02;;
36629;SDS011;36256;42.154;23.002;2023-04-16T05:19:31;19.58;;;8.38;;
36629;SDS011;36256;42.154;23.002;2023-04-16T05:21:57;25.50;;;12.70;;
36629;SDS011;36256;42.154;23.002;2023-04-16T05:24:24;22.92;;;11.48;;
36629;SDS011;36256;42.154;23.002;2023-04-16T05:26:51;25.90;;;13.53;;
36629;SDS011;36256;42.154;23.002;2023-04-16T05:29:18;28.98;;;13.52;;
36629;SDS011;36256;42.154;23.002;2023-04-16T05:31:44;26.48;;;12.13;;
36629;SDS011;36256;42.154;23.002;2023-04-16T05:34:11;32.95;;;16.40;;
36629;SDS011;36256;42.154;23.002;2023-04-16T05:36:38;27.93;;;12.27;;
36629;SDS011;36256;42.154;23.002;2023-04-16T05:39:04;27.10;;;13.00;;
36629;SDS011;36256;42.154;23.002;2023-04-16T05:41:31;30.88;;;12.75;;
36629;SDS011;36256;42.154;23.002;2023-04-16T05:43:58;36.63;;;15.35;;
36629;SDS011;36256;42.154;23.002;2023-04-16T05:46:24;37.73;;;15.97;;
36629;SDS011;36256;42.154;23.002;2023-04-16T05:48:51;30.45;;;12.98;;
36629;SDS011;36256;42.154;23.002;2023-04-16T05:51:18;18.87;;;8.57;;
36629;SDS011;36256;42.154;23.002;2023-04-16T05:53:45;21.15;;;11.02;;
36629;SDS011;36256;42.154;23.002;2023-04-16T05:56:11;29.42;;;13.13;;
36629;SDS011;36256;42.154;23.002;2023-04-16T05:58:38;25.27;;;10.97;;
36629;SDS011;36256;42.154;23.002;2023-04-16T06:01:04;21.10;;;7.70;;
36629;SDS011;36256;42.154;23.002;2023-04-16T06:03:32;23.13;;;7.70;;
36629;SDS011;36256;42.154;23.002;2023-04-16T06:05:59;22.00;;;7.55;;
36629;SDS011;36256;42.154;23.002;2023-04-16T06:08:26;14.30;;;7.10;;
36629;SDS011;36256;42.154;23.002;2023-04-16T06:10:52;15.70;;;7.63;;
36629;SDS011;36256;42.154;23.002;2023-04-16T06:13:19;12.17;;;7.00;;
36629;SDS011;36256;42.154;23.002;2023-04-16T06:15:45;17.75;;;7.45;;
36629;SDS011;36256;42.154;23.002;2023-04-16T06:18:13;16.48;;;6.95;;
36629;SDS011;36256;42.154;23.002;2023-04-16T06:20:39;13.48;;;6.90;;
36629;SDS011;36256;42.154;23.002;2023-04-16T06:23:06;16.85;;;6.60;;
36629;SDS011;36256;42.154;23.002;2023-04-16T06:25:33;16.73;;;7.90;;
36629;SDS011;36256;42.154;23.002;2023-04-16T06:27:59;14.27;;;7.80;;
36629;SDS011;36256;42.154;23.002;2023-04-16T06:30:26;17.07;;;8.80;;
36629;SDS011;36256;42.154;23.002;2023-04-16T06:32:53;15.90;;;8.15;;
36629;SDS011;36256;42.154;23.002;2023-04-16T06:35:19;16.73;;;8.48;;
36629;SDS011;36256;42.154;23.002;2023-04-16T06:37:46;26.92;;;13.43;;
36629;SDS011;36256;42.154;23.002;2023-04-16T06:40:12;18.87;;;9.73;;
36629;SDS011;36256;42.154;23.002;2023-04-16T06:42:39;16.63;;;8.43;;
36629;SDS011;36256;42.154;23.002;2023-04-16T06:45:08;13.60;;;7.38;;
36629;SDS011;36256;42.154;23.002;2023-04-16T06:47:35;12.43;;;6.25;;
36629;SDS011;36256;42.154;23.002;2023-04-16T06:50:01;10.77;;;6.35;;
36629;SDS011;36256;42.154;23.002;2023-04-16T06:52:28;14.95;;;6.90;;
36629;SDS011;36256;42.154;23.002;2023-04-16T06:54:55;12.65;;;5.70;;
36629;SDS011;36256;42.154;23.002;2023-04-16T06:57:22;12.80;;;6.22;;
36629;SDS011;36256;42.154;23.002;2023-04-16T06:59:48;11.03;;;6.90;;
36629;SDS011;36256;42.154;23.002;2023-04-16T07:02:15;14.18;;;6.55;;
36629;SDS011;36256;42.154;23.002;2023-04-16T07:04:42;10.95;;;6.13;;
36629;SDS011;36256;42.154;23.002;2023-04-16T07:07:09;13.47;;;5.53;;
36629;SDS011;36256;42.154;23.002;2023-04-16T07:09:35;20.07;;;8.67;;
36629;SDS011;36256;42.154;23.002;2023-04-16T07:12:02;9.80;;;5.37;;
36629;SDS011;36256;42.154;23.002;2023-04-16T07:14:29;9.90;;;4.95;;
36629;SDS011;36256;42.154;23.002;2023-04-16T07:16:55;8.80;;;4.80;;
36629;SDS011;36256;42.154;23.002;2023-04-16T07:19:22;10.20;;;4.60;;
36629;SDS011;36256;42.154;23.002;2023-04-16T07:21:49;10.15;;;5.30;;
36629;SDS011;36256;42.154;23.002;2023-04-16T07:24:15;12.73;;;5.13;;
36629;SDS011;36256;42.154;23.002;2023-04-16T07:26:42;7.38;;;4.18;;
36629;SDS011;36256;42.154;23.002;2023-04-16T07:29:09;13.60;;;5.10;;
36629;SDS011;36256;42.154;23.002;2023-04-16T07:31:35;7.60;;;4.80;;
36629;SDS011;36256;42.154;23.002;2023-04-16T07:34:02;8.30;;;3.08;;
36629;SDS011;36256;42.154;23.002;2023-04-16T07:36:29;6.75;;;2.58;;
36629;SDS011;36256;42.154;23.002;2023-04-16T07:38:57;7.88;;;2.75;;
36629;SDS011;36256;42.154;23.002;2023-04-16T07:41:23;6.70;;;2.63;;
36629;SDS011;36256;42.154;23.002;2023-04-16T07:43:50;7.50;;;2.53;;
36629;SDS011;36256;42.154;23.002;2023-04-16T07:46:17;6.32;;;2.72;;
36629;SDS011;36256;42.154;23.002;2023-04-16T07:48:43;6.38;;;2.90;;
36629;SDS011;36256;42.154;23.002;2023-04-16T07:51:10;12.02;;;2.70;;
36629;SDS011;36256;42.154;23.002;2023-04-16T07:53:37;24.63;;;2.88;;
36629;SDS011;36256;42.154;23.002;2023-04-16T07:56:03;6.23;;;2.10;;
36629;SDS011;36256;42.154;23.002;2023-04-16T07:58:30;7.35;;;2.85;;
36629;SDS011;36256;42.154;23.002;2023-04-16T08:00:57;6.07;;;2.60;;
36629;SDS011;36256;42.154;23.002;2023-04-16T08:03:24;2.88;;;1.80;;
36629;SDS011;36256;42.154;23.002;2023-04-16T08:05:51;4.00;;;2.10;;
36629;SDS011;36256;42.154;23.002;2023-04-16T08:08:17;7.03;;;1.77;;
36629;SDS011;36256;42.154;23.002;2023-04-16T08:10:44;5.60;;;1.80;;
36629;SDS011;36256;42.154;23.002;2023-04-16T08:13:11;5.05;;;2.30;;
36629;SDS011;36256;42.154;23.002;2023-04-16T08:15:37;9.70;;;2.73;;
36629;SDS011;36256;42.154;23.002;2023-04-16T08:18:04;5.33;;;2.53;;
36629;SDS011;36256;42.154;23.002;2023-04-16T08:20:32;4.03;;;2.20;;
36629;SDS011;36256;42.154;23.002;2023-04-16T08:22:59;4.32;;;1.88;;
36629;SDS011;36256;42.154;23.002;2023-04-16T08:25:25;3.53;;;1.53;;
36629;SDS011;36256;42.154;23.002;2023-04-16T08:27:52;4.87;;;1.60;;
36629;SDS011;36256;42.154;23.002;2023-04-16T08:30:18;5.27;;;2.20;;
36629;SDS011;36256;42.154;23.002;2023-04-16T08:32:47;7.40;;;1.70;;
36629;SDS011;36256;42.154;23.002;2023-04-16T08:35:15;5.40;;;1.80;;
36629;SDS011;36256;42.154;23.002;2023-04-16T08:37:42;3.47;;;1.77;;
36629;SDS011;36256;42.154;23.002;2023-04-16T08:40:09;4.80;;;1.75;;
36629;SDS011;36256;42.154;23.002;2023-04-16T08:42:47;5.45;;;2.05;;
36629;SDS011;36256;42.154;23.002;2023-04-16T08:45:18;4.38;;;2.00;;
36629;SDS011;36256;42.154;23.002;2023-04-16T08:47:46;4.85;;;1.95;;
36629;SDS011;36256;42.154;23.002;2023-04-16T08:50:14;4.20;;;1.73;;
36629;SDS011;36256;42.154;23.002;2023-04-16T08:52:44;6.13;;;1.80;;
36629;SDS011;36256;42.154;23.002;2023-04-16T08:55:17;3.13;;;1.73;;
36629;SDS011;36256;42.154;23.002;2023-04-16T08:57:49;6.65;;;1.40;;
36629;SDS011;36256;42.154;23.002;2023-04-16T09:00:19;5.13;;;1.90;;
36629;SDS011;36256;42.154;23.002;2023-04-16T09:02:46;3.78;;;1.52;;
36629;SDS011;36256;42.154;23.002;2023-04-16T09:05:15;3.70;;;2.03;;
36629;SDS011;36256;42.154;23.002;2023-04-16T09:07:44;4.82;;;1.88;;
36629;SDS011;36256;42.154;23.002;2023-04-16T09:10:12;6.70;;;2.05;;
36629;SDS011;36256;42.154;23.002;2023-04-16T09:12:40;3.08;;;1.60;;
36629;SDS011;36256;42.154;23.002;2023-04-16T09:15:11;5.63;;;2.55;;
36629;SDS011;36256;42.154;23.002;2023-04-16T09:17:39;4.18;;;1.55;;
36629;SDS011;36256;42.154;23.002;2023-04-16T09:20:06;7.70;;;1.70;;
36629;SDS011;36256;42.154;23.002;2023-04-16T09:22:34;2.60;;;1.42;;
36629;SDS011;36256;42.154;23.002;2023-04-16T09:25:01;4.03;;;1.55;;
36629;SDS011;36256;42.154;23.002;2023-04-16T09:27:28;7.05;;;1.80;;
36629;SDS011;36256;42.154;23.002;2023-04-16T09:29:56;3.90;;;1.60;;
36629;SDS011;36256;42.154;23.002;2023-04-16T09:32:26;4.55;;;1.52;;
36629;SDS011;36256;42.154;23.002;2023-04-16T09:34:54;4.13;;;1.30;;
36629;SDS011;36256;42.154;23.002;2023-04-16T09:37:28;5.45;;;1.42;;
36629;SDS011;36256;42.154;23.002;2023-04-16T09:39:59;4.28;;;1.20;;
36629;SDS011;36256;42.154;23.002;2023-04-16T09:42:27;3.58;;;1.38;;
36629;SDS011;36256;42.154;23.002;2023-04-16T09:44:58;4.55;;;1.90;;
36629;SDS011;36256;42.154;23.002;2023-04-16T09:47:38;3.53;;;1.50;;
36629;SDS011;36256;42.154;23.002;2023-04-16T09:50:09;5.13;;;2.20;;
36629;SDS011;36256;42.154;23.002;2023-04-16T09:52:48;5.53;;;3.17;;
36629;SDS011;36256;42.154;23.002;2023-04-16T09:55:21;4.60;;;2.20;;
36629;SDS011;36256;42.154;23.002;2023-04-16T09:57:48;6.15;;;2.70;;
36629;SDS011;36256;42.154;23.002;2023-04-16T10:00:24;6.88;;;1.63;;
36629;SDS011;36256;42.154;23.002;2023-04-16T10:03:01;6.28;;;1.90;;
36629;SDS011;36256;42.154;23.002;2023-04-16T10:05:29;6.97;;;2.30;;
36629;SDS011;36256;42.154;23.002;2023-04-16T10:07:58;4.00;;;1.30;;
36629;SDS011;36256;42.154;23.002;2023-04-16T10:10:26;5.13;;;1.55;;
36629;SDS011;36256;42.154;23.002;2023-04-16T10:12:54;3.80;;;1.55;;
36629;SDS011;36256;42.154;23.002;2023-04-16T10:17:47;4.47;;;1.85;;
36629;SDS011;36256;42.154;23.002;2023-04-16T10:20:15;2.20;;;1.00;;
36629;SDS011;36256;42.154;23.002;2023-04-16T10:22:43;3.10;;;1.20;;
36629;SDS011;36256;42.154;23.002;2023-04-16T10:25:10;4.43;;;2.20;;
36629;SDS011;36256;42.154;23.002;2023-04-16T10:30:06;2.55;;;0.93;;
36629;SDS011;36256;42.154;23.002;2023-04-16T10:32:34;4.93;;;1.17;;
36629;SDS011;36256;42.154;23.002;2023-04-16T10:35:03;4.70;;;1.00;;
36629;SDS011;36256;42.154;23.002;2023-04-16T10:37:30;2.38;;;0.85;;
36629;SDS011;36256;42.154;23.002;2023-04-16T10:39:58;3.22;;;0.70;;
36629;SDS011;36256;42.154;23.002;2023-04-16T10:42:25;2.97;;;1.10;;
36629;SDS011;36256;42.154;23.002;2023-04-16T10:47:19;3.03;;;1.00;;
36629;SDS011;36256;42.154;23.002;2023-04-16T10:49:50;3.42;;;1.13;;
36629;SDS011;36256;42.154;23.002;2023-04-16T10:52:17;5.28;;;1.10;;
36629;SDS011;36256;42.154;23.002;2023-04-16T10:54:43;4.75;;;1.00;;
36629;SDS011;36256;42.154;23.002;2023-04-16T10:57:17;2.72;;;1.20;;
36629;SDS011;36256;42.154;23.002;2023-04-16T10:59:45;3.03;;;1.27;;
36629;SDS011;36256;42.154;23.002;2023-04-16T11:02:14;2.60;;;1.20;;
36629;SDS011;36256;42.154;23.002;2023-04-16T11:04:44;2.55;;;0.90;;
36629;SDS011;36256;42.154;23.002;2023-04-16T11:09:52;2.80;;;1.13;;
36629;SDS011;36256;42.154;23.002;2023-04-16T11:14:46;13.75;;;2.25;;
36629;SDS011;36256;42.154;23.002;2023-04-16T11:17:15;2.28;;;1.20;;
36629;SDS011;36256;42.154;23.002;2023-04-16T11:19:42;2.97;;;1.20;;
36629;SDS011;36256;42.154;23.002;2023-04-16T11:22:11;2.70;;;0.95;;
36629;SDS011;36256;42.154;23.002;2023-04-16T11:24:40;5.25;;;1.10;;
36629;SDS011;36256;42.154;23.002;2023-04-16T11:27:06;3.92;;;1.40;;
36629;SDS011;36256;42.154;23.002;2023-04-16T11:29:33;3.42;;;1.23;;
36629;SDS011;36256;42.154;23.002;2023-04-16T11:32:00;2.45;;;1.35;;
36629;SDS011;36256;42.154;23.002;2023-04-16T11:34:27;6.82;;;3.22;;
36629;SDS011;36256;42.154;23.002;2023-04-16T11:36:53;7.63;;;2.92;;
36629;SDS011;36256;42.154;23.002;2023-04-16T11:39:20;7.50;;;4.00;;
36629;SDS011;36256;42.154;23.002;2023-04-16T11:41:47;29.55;;;5.53;;
36629;SDS011;36256;42.154;23.002;2023-04-16T11:44:24;36.33;;;32.53;;
36629;SDS011;36256;42.154;23.002;2023-04-16T11:46:51;4.13;;;2.58;;
36629;SDS011;36256;42.154;23.002;2023-04-16T11:49:28;2.95;;;0.90;;
36629;SDS011;36256;42.154;23.002;2023-04-16T11:51:55;3.90;;;1.33;;
36629;SDS011;36256;42.154;23.002;2023-04-16T11:54:23;1.50;;;0.57;;
36629;SDS011;36256;42.154;23.002;2023-04-16T11:56:51;4.70;;;1.10;;
36629;SDS011;36256;42.154;23.002;2023-04-16T11:59:19;2.20;;;0.70;;
36629;SDS011;36256;42.154;23.002;2023-04-16T12:01:49;4.47;;;1.25;;
36629;SDS011;36256;42.154;23.002;2023-04-16T12:04:19;3.05;;;0.80;;
36629;SDS011;36256;42.154;23.002;2023-04-16T12:09:35;7.82;;;1.10;;
36629;SDS011;36256;42.154;23.002;2023-04-16T12:12:09;3.50;;;0.70;;
36629;SDS011;36256;42.154;23.002;2023-04-16T12:14:51;2.65;;;0.70;;
36629;SDS011;36256;42.154;23.002;2023-04-16T12:19:55;3.60;;;1.00;;
36629;SDS011;36256;42.154;23.002;2023-04-16T12:22:33;3.40;;;0.82;;
36629;SDS011;36256;42.154;23.002;2023-04-16T12:25:20;1.75;;;0.70;;
36629;SDS011;36256;42.154;23.002;2023-04-16T12:27:50;3.90;;;0.68;;
36629;SDS011;36256;42.154;23.002;2023-04-16T12:30:21;2.47;;;1.00;;
36629;SDS011;36256;42.154;23.002;2023-04-16T12:32:50;2.83;;;1.02;;
36629;SDS011;36256;42.154;23.002;2023-04-16T12:35:28;2.20;;;1.42;;
36629;SDS011;36256;42.154;23.002;2023-04-16T12:37:56;2.97;;;2.10;;
36629;SDS011;36256;42.154;23.002;2023-04-16T12:40:23;2.70;;;0.80;;
36629;SDS011;36256;42.154;23.002;2023-04-16T12:42:50;2.97;;;0.80;;
36629;SDS011;36256;42.154;23.002;2023-04-16T12:45:16;2.92;;;1.30;;
36629;SDS011;36256;42.154;23.002;2023-04-16T12:47:43;4.85;;;1.00;;
36629;SDS011;36256;42.154;23.002;2023-04-16T12:50:10;2.25;;;1.25;;
36629;SDS011;36256;42.154;23.002;2023-04-16T12:52:36;2.25;;;0.55;;
36629;SDS011;36256;42.154;23.002;2023-04-16T12:55:03;5.93;;;0.88;;
36629;SDS011;36256;42.154;23.002;2023-04-16T12:57:30;3.17;;;1.00;;
36629;SDS011;36256;42.154;23.002;2023-04-16T12:59:57;4.22;;;1.02;;
36629;SDS011;36256;42.154;23.002;2023-04-16T13:02:24;8.88;;;1.60;;
36629;SDS011;36256;42.154;23.002;2023-04-16T13:04:51;6.57;;;1.00;;
36629;SDS011;36256;42.154;23.002;2023-04-16T13:07:19;4.25;;;1.20;;
36629;SDS011;36256;42.154;23.002;2023-04-16T13:12:13;5.95;;;1.65;;
36629;SDS011;36256;42.154;23.002;2023-04-16T13:14:40;0.95;;;0.60;;
36629;SDS011;36256;42.154;23.002;2023-04-16T13:17:10;9.52;;;1.00;;
36629;SDS011;36256;42.154;23.002;2023-04-16T13:19:36;4.53;;;1.00;;
36629;SDS011;36256;42.154;23.002;2023-04-16T13:22:03;3.27;;;1.07;;
36629;SDS011;36256;42.154;23.002;2023-04-16T13:24:30;8.07;;;0.93;;
36629;SDS011;36256;42.154;23.002;2023-04-16T13:26:56;3.50;;;1.00;;
36629;SDS011;36256;42.154;23.002;2023-04-16T13:29:23;3.50;;;0.88;;
36629;SDS011;36256;42.154;23.002;2023-04-16T13:31:50;4.53;;;0.95;;
36629;SDS011;36256;42.154;23.002;2023-04-16T13:36:44;3.70;;;0.93;;
36629;SDS011;36256;42.154;23.002;2023-04-16T13:39:10;27.88;;;2.15;;
36629;SDS011;36256;42.154;23.002;2023-04-16T13:41:37;4.45;;;1.30;;
36629;SDS011;36256;42.154;23.002;2023-04-16T13:44:05;3.05;;;1.30;;
36629;SDS011;36256;42.154;23.002;2023-04-16T13:48:58;3.75;;;1.33;;
36629;SDS011;36256;42.154;23.002;2023-04-16T13:51:25;4.43;;;1.55;;
36629;SDS011;36256;42.154;23.002;2023-04-16T13:56:20;3.20;;;1.27;;
36629;SDS011;36256;42.154;23.002;2023-04-16T13:58:47;3.05;;;1.02;;
36629;SDS011;36256;42.154;23.002;2023-04-16T14:01:13;5.30;;;1.30;;
36629;SDS011;36256;42.154;23.002;2023-04-16T14:03:40;3.42;;;1.05;;
36629;SDS011;36256;42.154;23.002;2023-04-16T14:06:07;4.28;;;1.30;;
36629;SDS011;36256;42.154;23.002;2023-04-16T14:08:33;4.57;;;1.30;;
36629;SDS011;36256;42.154;23.002;2023-04-16T14:11:00;5.10;;;1.58;;
36629;SDS011;36256;42.154;23.002;2023-04-16T14:13:27;6.50;;;1.33;;
36629;SDS011;36256;42.154;23.002;2023-04-16T14:15:54;4.25;;;1.48;;
36629;SDS011;36256;42.154;23.002;2023-04-16T14:18:21;3.45;;;1.08;;
36629;SDS011;36256;42.154;23.002;2023-04-16T14:20:47;3.03;;;1.02;;
36629;SDS011;36256;42.154;23.002;2023-04-16T14:23:14;1.60;;;1.03;;
36629;SDS011;36256;42.154;23.002;2023-04-16T14:25:40;2.47;;;1.00;;
36629;SDS011;36256;42.154;23.002;2023-04-16T14:28:07;5.10;;;1.30;;
36629;SDS011;36256;42.154;23.002;2023-04-16T14:30:34;4.32;;;1.00;;
36629;SDS011;36256;42.154;23.002;2023-04-16T14:33:02;4.15;;;1.20;;
36629;SDS011;36256;42.154;23.002;2023-04-16T14:35:30;3.53;;;1.20;;
36629;SDS011;36256;42.154;23.002;2023-04-16T14:37:58;11.18;;;2.95;;
36629;SDS011;36256;42.154;23.002;2023-04-16T14:40:25;7.45;;;1.30;;
36629;SDS011;36256;42.154;23.002;2023-04-16T14:42:51;5.05;;;1.85;;
36629;SDS011;36256;42.154;23.002;2023-04-16T14:45:18;5.13;;;1.25;;
36629;SDS011;36256;42.154;23.002;2023-04-16T14:47:44;2.25;;;1.20;;
36629;SDS011;36256;42.154;23.002;2023-04-16T14:50:13;3.80;;;1.83;;
36629;SDS011;36256;42.154;23.002;2023-04-16T14:52:40;11.88;;;1.67;;
36629;SDS011;36256;42.154;23.002;2023-04-16T14:55:07;2.25;;;1.25;;
36629;SDS011;36256;42.154;23.002;2023-04-16T14:57:34;3.47;;;1.33;;
36629;SDS011;36256;42.154;23.002;2023-04-16T15:00:01;6.90;;;1.25;;
36629;SDS011;36256;42.154;23.002;2023-04-16T15:02:33;2.60;;;1.10;;
36629;SDS011;36256;42.154;23.002;2023-04-16T15:05:00;5.80;;;2.50;;
36629;SDS011;36256;42.154;23.002;2023-04-16T15:07:27;3.00;;;1.35;;
36629;SDS011;36256;42.154;23.002;2023-04-16T15:09:53;3.95;;;1.42;;